Time;durP1;ratioP1;P1;durP2;ratioP2;P2;SDS_P1;SDS_P2;PMS_P1;PMS_P2;Temp;Humidity;BMP_temperature;BMP_pressure;BME280_temperature;BME280_humidity;BME280_pressure;Samples;Min_cycle;Max_cycle;Signal;HPM_P1;HPM_P2
2021/06/11 00:00:13;;;;;;;;;;;;;;;;;;1483489;40;7892;-63
2021/06/11 00:01:16;;;;;;;;;;;;;;;;;;1483109;40;7879;-63
2021/06/11 00:02:18;;;;;;;;;;;;;;;;;;1483438;40;7949;-64
2021/06/11 00:03:20;;;;;;;;;;;;;;;;;;1479203;40;7920;-63
2021/06/11 00:04:23;;;;;;;;;;;;;;;;;;1478941;40;7948;-67
2021/06/11 00:05:25;;;;;;;;;;;;;;;;;;1479308;40;7003;-66
2021/06/11 00:06:28;;;;;;;;;;;;;;;;;;1479316;40;7031;-65
2021/06/11 00:07:30;;;;;;;;;;;;;;;;;;1478485;40;8932;-64
2021/06/11 00:08:32;;;;;;;;;;;;;;;;;;1479137;40;7059;-63
2021/06/11 00:09:35;;;;;;;;;;;;;;;;;;1479121;40;7969;-65
2021/06/11 00:10:38;;;;;;;;;;;;;;;;;;1479210;40;8898;-66
2021/06/11 00:11:41;;;;;;;;;;;;;;;;;;1479284;40;7919;-66
2021/06/11 00:12:44;;;;;;;;;;;;;;;;;;1479131;40;7128;-68
2021/06/11 00:13:46;;;;;;;;;;;;;;;;;;1478643;40;7032;-65
2021/06/11 00:14:48;;;;;;;;;;;;;;;;;;1479221;40;7099;-64
2021/06/11 00:15:51;;;;;;;;;;;;;;;;;;1479168;40;7003;-63
2021/06/11 00:16:53;;;;;;;;;;;;;;;;;;1479012;40;7167;-66
2021/06/11 00:17:56;;;;;;;;;;;;;;;;;;1481278;40;7882;-67
2021/06/11 00:18:58;;;;;;;;;;;;;;;;;;1481514;40;7163;-64
2021/06/11 00:20:01;;;;;;;;;;;;;;;;;;1478850;40;7146;-67
2021/06/11 00:21:03;;;;;;;;;;;;;;;;;;1478552;40;7055;-64
2021/06/11 00:22:05;;;;;;;;;;;;;;;;;;1482727;40;7926;-66
2021/06/11 00:23:08;;;;;;;;;;;;;;;;;;1480849;40;7136;-64
2021/06/11 00:24:10;;;;;;;;;;;;;;;;;;1478773;40;7059;-66
2021/06/11 00:25:16;;;;;;;;;;;;;;;;;;1478508;40;7953;-68
2021/06/11 00:26:19;;;;;;;;;;;;;;;;;;1478826;40;7035;-64
2021/06/11 00:27:21;;;;;;;;;;;;;;;;;;1478263;40;7113;-66
2021/06/11 00:28:24;;;;;;;;;;;;;;;;;;1478692;40;7632;-64
2021/06/11 00:29:26;;;;;;;;;;;;;;;;;;1478357;40;7071;-66
2021/06/11 00:30:30;;;;;;;;;;;;;;;;;;1478734;40;7039;-64
2021/06/11 00:31:33;;;;;;;;;;;;;;;;;;1478873;40;8860;-64
2021/06/11 00:32:36;;;;;;;;;;;;;;;;;;1478703;40;7035;-66
2021/06/11 00:33:39;;;;;;;;;;;;;;;;;;1478973;40;7008;-67
2021/06/11 00:34:41;;;;;;;;;;;;;;;;;;1478852;40;7035;-62
2021/06/11 00:35:44;;;;;;;;;;;;;;;;;;1478810;40;7931;-65
2021/06/11 00:36:47;;;;;;;;;;;;;;;;;;1478350;40;7919;-63
2021/06/11 00:37:49;;;;;;;;;;;;;;;;;;1479099;40;7222;-69
2021/06/11 00:38:52;;;;;;;;;;;;;;;;;;1480509;40;6999;-64
2021/06/11 00:39:54;;;;;;;;;;;;;;;;;;1483206;40;7008;-64
2021/06/11 00:40:57;;;;;;;;;;;;;;;;;;1483157;40;8877;-63
2021/06/11 00:42:01;;;;;;;;;;;;;;;;;;1483081;40;7048;-64
2021/06/11 00:43:03;;;;;;;;;;;;;;;;;;1482884;40;7000;-64
2021/06/11 00:44:06;;;;;;;;;;;;;;;;;;1483357;40;7060;-69
2021/06/11 00:45:09;;;;;;;;;;;;;;;;;;1483081;40;7000;-66
2021/06/11 00:46:12;;;;;;;;;;;;;;;;;;1483107;40;7003;-65
2021/06/11 00:47:14;;;;;;;;;;;;;;;;;;1480665;40;7909;-65
2021/06/11 00:48:17;;;;;;;;;;;;;;;;;;1474816;40;7012;-64
2021/06/11 00:49:20;;;;;;;;;;;;;;;;;;1474766;40;7008;-63
2021/06/11 00:50:25;;;;;;;;;;;;;;;;;;1478501;40;7297;-67
2021/06/11 00:51:27;;;;;;;;;;;;;;;;;;1478814;40;7876;-65
2021/06/11 00:52:33;;;;;;;;;;;;;;;;;;1479048;40;7035;-66
2021/06/11 00:53:36;;;;;;;;;;;;;;;;;;1478772;40;7860;-63
2021/06/11 00:54:38;;;;;;;;;;;;;;;;;;1478861;40;7006;-64
2021/06/11 00:55:44;;;;;;;;;;;;;;;;;;1479058;40;7039;-64
2021/06/11 00:56:46;;;;;;;;;;;;;;;;;;1479216;40;7055;-65
2021/06/11 00:57:49;;;;;;;;;;;;;;;;;;1478706;40;6999;-66
2021/06/11 00:58:52;;;;;;;;;;;;;;;;;;1478585;40;7000;-64
2021/06/11 00:59:55;;;;;;;;;;;;;;;;;;1478878;40;7129;-67
2021/06/11 01:00:57;;;;;;;;;;;;;;;;;;1479166;40;7939;-66
2021/06/11 01:02:00;;;;;;;;;;;;;;;;;;1480153;40;7008;-68
2021/06/11 01:03:03;;;;;;;;;;;;;;;;;;1483209;40;7902;-66
2021/06/11 01:04:05;;;;;;;;;;;;;;;;;;1483069;40;7084;-69
2021/06/11 01:05:08;;;;;;;;;;;;;;;;;;1483009;40;7016;-63
2021/06/11 01:06:12;;;;;;;;;;;;;;;;;;1482967;40;7109;-65
2021/06/11 01:07:15;;;;;;;;;;;;;;;;;;1483441;40;7043;-62
2021/06/11 01:08:18;;;;;;;;;;;;;;;;;;1482982;40;7035;-66
2021/06/11 01:09:21;;;;;;;;;;;;;;;;;;1483089;40;7121;-64
2021/06/11 01:10:24;;;;;;;;;;;;;;;;;;1482893;40;6999;-66
2021/06/11 01:11:27;;;;;;;;;;;;;;;;;;1482758;40;7052;-63
2021/06/11 01:12:32;;;;;;;;;;;;;;;;;;1482937;40;7918;-64
2021/06/11 01:13:35;;;;;;;;;;;;;;;;;;1483392;40;7075;-66
2021/06/11 01:14:39;;;;;;;;;;;;;;;;;;1478910;40;7007;-63
2021/06/11 01:15:42;;;;;;;;;;;;;;;;;;1478673;40;7027;-64
2021/06/11 01:16:44;;;;;;;;;;;;;;;;;;1479109;40;7000;-67
2021/06/11 01:17:47;;;;;;;;;;;;;;;;;;1479104;40;7833;-63
2021/06/11 01:18:50;;;;;;;;;;;;;;;;;;1478467;40;7031;-64
2021/06/11 01:19:53;;;;;;;;;;;;;;;;;;1482883;40;7208;-65
2021/06/11 01:20:56;;;;;;;;;;;;;;;;;;1479975;40;7968;-66
2021/06/11 01:22:03;;;;;;;;;;;;;;;;;;1481336;40;7008;-65
2021/06/11 01:23:28;;;;;;;;;;;;;;;;;;1478481;40;7051;-66
2021/06/11 01:24:34;;;;;;;;;;;;;;;;;;1480533;40;7187;-66
2021/06/11 01:25:46;;;;;;;;;;;;;;;;;;1479737;40;7035;-64
2021/06/11 01:26:50;;;;;;;;;;;;;;;;;;1478682;40;7007;-65
2021/06/11 01:27:54;;;;;;;;;;;;;;;;;;1478122;40;7109;-64
2021/06/11 01:29:18;;;;;;;;;;;;;;;;;;1482689;40;7044;-65
2021/06/11 01:30:23;;;;;;;;;;;;;;;;;;1482609;40;6995;-66
2021/06/11 01:31:27;;;;;;;;;;;;;;;;;;1482608;40;7058;-66
2021/06/11 01:32:32;;;;;;;;;;;;;;;;;;1482699;40;6999;-66
2021/06/11 01:33:36;;;;;;;;;;;;;;;;;;1481058;40;7019;-63
2021/06/11 01:34:40;;;;;;;;;;;;;;;;;;1479085;40;7110;-68
2021/06/11 01:35:46;;;;;;;;;;;;;;;;;;1478983;40;7043;-66
2021/06/11 01:36:52;;;;;;;;;;;;;;;;;;1478199;40;7231;-63
2021/06/11 01:38:01;;;;;;;;;;;;;;;;;;1478558;40;7892;-64
2021/06/11 01:39:05;;;;;;;;;;;;;;;;;;1478779;40;7008;-65
2021/06/11 01:40:10;;;;;;;;;;;;;;;;;;1478804;40;7058;-63
2021/06/11 01:41:15;;;;;;;;;;;;;;;;;;1479244;40;7008;-66
2021/06/11 01:42:17;;;;;;;;;;;;;;;;;;1479027;40;7894;-68
2021/06/11 01:43:23;;;;;;;;;;;;;;;;;;1478848;40;7027;-66
2021/06/11 01:44:26;;;;;;;;;;;;;;;;;;1478811;40;7012;-65
2021/06/11 01:45:30;;;;;;;;;;;;;;;;;;1478736;40;7046;-65
2021/06/11 01:46:34;;;;;;;;;;;;;;;;;;1478907;40;7016;-63
2021/06/11 01:47:39;;;;;;;;;;;;;;;;;;1482372;40;7121;-66
2021/06/11 01:48:44;;;;;;;;;;;;;;;;;;1483355;40;7029;-64
2021/06/11 01:49:47;;;;;;;;;;;;;;;;;;1480759;40;7000;-64
2021/06/11 01:50:50;;;;;;;;;;;;;;;;;;1478992;40;7024;-66
2021/06/11 01:51:58;;;;;;;;;;;;;;;;;;1478783;40;7112;-65
2021/06/11 01:53:02;;;;;;;;;;;;;;;;;;1479343;40;7074;-64
2021/06/11 01:54:09;;;;;;;;;;;;;;;;;;1479095;40;7510;-66
2021/06/11 01:55:11;;;;;;;;;;;;;;;;;;1478822;40;7020;-65
2021/06/11 01:56:18;;;;;;;;;;;;;;;;;;1478955;40;7222;-64
2021/06/11 01:57:20;;;;;;;;;;;;;;;;;;1478784;40;7199;-65
2021/06/11 01:58:24;;;;;;;;;;;;;;;;;;1478351;40;7057;-66
2021/06/11 01:59:27;;;;;;;;;;;;;;;;;;1478584;40;7047;-66
2021/06/11 02:00:29;;;;;;;;;;;;;;;;;;1478860;40;7935;-65
2021/06/11 02:01:33;;;;;;;;;;;;;;;;;;1478585;40;7117;-65
2021/06/11 02:02:36;;;;;;;;;;;;;;;;;;1478276;40;7003;-66
2021/06/11 02:03:39;;;;;;;;;;;;;;;;;;1478756;40;7021;-67
2021/06/11 02:04:42;;;;;;;;;;;;;;;;;;1478808;40;7116;-62
2021/06/11 02:05:45;;;;;;;;;;;;;;;;;;1478843;40;7138;-65
2021/06/11 02:06:49;;;;;;;;;;;;;;;;;;1478560;40;7000;-64
2021/06/11 02:07:52;;;;;;;;;;;;;;;;;;1478906;40;7003;-68
2021/06/11 02:08:56;;;;;;;;;;;;;;;;;;1478662;40;7048;-66
2021/06/11 02:09:59;;;;;;;;;;;;;;;;;;1478574;40;7852;-67
2021/06/11 02:11:02;;;;;;;;;;;;;;;;;;1478747;40;6995;-65
2021/06/11 02:12:05;;;;;;;;;;;;;;;;;;1479110;40;7161;-67
2021/06/11 02:13:08;;;;;;;;;;;;;;;;;;1478961;40;7235;-65
2021/06/11 02:14:12;;;;;;;;;;;;;;;;;;1479278;40;7247;-64
2021/06/11 02:15:16;;;;;;;;;;;;;;;;;;1478876;40;7035;-68
2021/06/11 02:16:21;;;;;;;;;;;;;;;;;;1478234;40;7035;-63
2021/06/11 02:17:24;;;;;;;;;;;;;;;;;;1478884;40;7121;-62
2021/06/11 02:18:27;;;;;;;;;;;;;;;;;;1482791;40;7000;-64
2021/06/11 02:19:32;;;;;;;;;;;;;;;;;;1479264;40;7839;-67
2021/06/11 02:20:35;;;;;;;;;;;;;;;;;;1478605;40;7004;-67
2021/06/11 02:21:39;;;;;;;;;;;;;;;;;;1480364;40;7128;-62
2021/06/11 02:22:42;;;;;;;;;;;;;;;;;;1482310;40;7887;-66
2021/06/11 02:23:45;;;;;;;;;;;;;;;;;;1478819;40;7023;-63
2021/06/11 02:24:47;;;;;;;;;;;;;;;;;;1478658;40;7039;-66
2021/06/11 02:25:50;;;;;;;;;;;;;;;;;;1482534;40;7003;-64
2021/06/11 02:26:54;;;;;;;;;;;;;;;;;;1482429;40;7043;-66
2021/06/11 02:27:57;;;;;;;;;;;;;;;;;;1482357;40;6999;-66
2021/06/11 02:28:59;;;;;;;;;;;;;;;;;;1482493;40;6999;-63
2021/06/11 02:30:04;;;;;;;;;;;;;;;;;;1480249;40;6999;-64
2021/06/11 02:31:06;;;;;;;;;;;;;;;;;;1478246;40;7015;-63
2021/06/11 02:32:09;;;;;;;;;;;;;;;;;;1478566;40;7126;-66
2021/06/11 02:33:13;;;;;;;;;;;;;;;;;;1478638;40;7031;-63
2021/06/11 02:34:16;;;;;;;;;;;;;;;;;;1478898;40;7117;-63
2021/06/11 02:35:20;;;;;;;;;;;;;;;;;;1478897;40;7069;-66
2021/06/11 02:36:22;;;;;;;;;;;;;;;;;;1478803;40;7126;-63
2021/06/11 02:37:25;;;;;;;;;;;;;;;;;;1478609;40;7015;-64
2021/06/11 02:38:27;;;;;;;;;;;;;;;;;;1478770;40;7920;-67
2021/06/11 02:39:29;;;;;;;;;;;;;;;;;;1478283;40;7921;-65
2021/06/11 02:40:32;;;;;;;;;;;;;;;;;;1478762;40;7087;-65
2021/06/11 02:41:40;;;;;;;;;;;;;;;;;;1478771;40;7100;-66
2021/06/11 02:42:47;;;;;;;;;;;;;;;;;;1478960;40;6999;-66
2021/06/11 02:43:51;;;;;;;;;;;;;;;;;;1478878;40;7039;-66
2021/06/11 02:44:55;;;;;;;;;;;;;;;;;;1478934;40;7444;-67
2021/06/11 02:46:27;;;;;;;;;;;;;;;;;;1479114;40;7949;-63
2021/06/11 02:47:52;;;;;;;;;;;;;;;;;;1477052;40;7117;-65
2021/06/11 02:48:57;;;;;;;;;;;;;;;;;;1477696;40;7035;-65
2021/06/11 02:50:04;;;;;;;;;;;;;;;;;;1483241;40;7012;-65
2021/06/11 02:51:12;;;;;;;;;;;;;;;;;;1483531;40;7959;-65
2021/06/11 02:52:21;;;;;;;;;;;;;;;;;;1482973;40;7044;-64
2021/06/11 02:53:28;;;;;;;;;;;;;;;;;;1483439;40;7074;-64
2021/06/11 02:54:36;;;;;;;;;;;;;;;;;;1482747;40;7116;-66
2021/06/11 02:55:39;;;;;;;;;;;;;;;;;;1478944;40;7011;-64
2021/06/11 02:56:51;;;;;;;;;;;;;;;;;;1478978;40;7031;-68
2021/06/11 02:58:05;;;;;;;;;;;;;;;;;;1478623;40;7011;-65
2021/06/11 02:59:11;;;;;;;;;;;;;;;;;;1481779;40;7008;-63
2021/06/11 03:00:14;;;;;;;;;;;;;;;;;;1482489;40;7119;-65
2021/06/11 03:01:18;;;;;;;;;;;;;;;;;;1482788;40;7898;-62
2021/06/11 03:02:27;;;;;;;;;;;;;;;;;;1482989;40;7000;-65
2021/06/11 03:03:34;;;;;;;;;;;;;;;;;;1478580;40;8006;-66
2021/06/11 03:04:40;;;;;;;;;;;;;;;;;;1478246;40;7665;-66
2021/06/11 03:05:44;;;;;;;;;;;;;;;;;;1478162;40;8260;-64
2021/06/11 03:06:48;;;;;;;;;;;;;;;;;;1478493;40;6999;-65
2021/06/11 03:07:55;;;;;;;;;;;;;;;;;;1478770;40;7934;-62
2021/06/11 03:09:00;;;;;;;;;;;;;;;;;;1478380;40;7048;-65
2021/06/11 03:10:06;;;;;;;;;;;;;;;;;;1479145;40;7007;-66
2021/06/11 03:11:13;;;;;;;;;;;;;;;;;;1478295;40;7129;-66
2021/06/11 03:12:16;;;;;;;;;;;;;;;;;;1479122;40;7004;-66
2021/06/11 03:13:20;;;;;;;;;;;;;;;;;;1478815;40;7108;-65
2021/06/11 03:14:25;;;;;;;;;;;;;;;;;;1478369;40;7190;-67
2021/06/11 03:15:30;;;;;;;;;;;;;;;;;;1478950;40;7104;-62
2021/06/11 03:16:33;;;;;;;;;;;;;;;;;;1478316;40;7051;-63
2021/06/11 03:17:50;;;;;;;;;;;;;;;;;;1480335;40;7008;-66
2021/06/11 03:18:59;;;;;;;;;;;;;;;;;;1481686;40;7007;-65
2021/06/11 03:20:05;;;;;;;;;;;;;;;;;;1478183;40;7035;-62
2021/06/11 03:21:16;;;;;;;;;;;;;;;;;;1478147;40;7125;-66
2021/06/11 03:22:23;;;;;;;;;;;;;;;;;;1478072;40;7004;-67
2021/06/11 03:23:40;;;;;;;;;;;;;;;;;;1480487;40;7112;-65
2021/06/11 03:25:01;;;;;;;;;;;;;;;;;;1478203;40;7035;-68
2021/06/11 03:26:06;;;;;;;;;;;;;;;;;;1478068;40;7016;-63
2021/06/11 03:27:19;;;;;;;;;;;;;;;;;;1480381;40;7923;-66
2021/06/11 03:28:29;;;;;;;;;;;;;;;;;;1482430;40;7880;-65
2021/06/11 03:29:34;;;;;;;;;;;;;;;;;;1478396;40;7874;-65
2021/06/11 03:30:38;;;;;;;;;;;;;;;;;;1482368;40;6999;-64
2021/06/11 03:31:46;;;;;;;;;;;;;;;;;;1482518;40;7011;-65
2021/06/11 03:32:52;;;;;;;;;;;;;;;;;;1482186;40;7016;-63
2021/06/11 03:33:58;;;;;;;;;;;;;;;;;;1482524;40;7039;-70
2021/06/11 03:35:03;;;;;;;;;;;;;;;;;;1483020;40;7938;-66
2021/06/11 03:36:11;;;;;;;;;;;;;;;;;;1482777;40;7007;-63
2021/06/11 03:37:16;;;;;;;;;;;;;;;;;;1482340;40;7109;-66
2021/06/11 03:38:22;;;;;;;;;;;;;;;;;;1482774;40;7000;-61
2021/06/11 03:39:27;;;;;;;;;;;;;;;;;;1478366;40;7027;-63
2021/06/11 03:40:34;;;;;;;;;;;;;;;;;;1478456;40;7118;-62
2021/06/11 03:41:38;;;;;;;;;;;;;;;;;;1478909;40;7118;-65
2021/06/11 03:42:40;;;;;;;;;;;;;;;;;;1479040;40;6999;-63
2021/06/11 03:43:45;;;;;;;;;;;;;;;;;;1478380;40;7028;-65
2021/06/11 03:44:50;;;;;;;;;;;;;;;;;;1478554;40;7003;-66
2021/06/11 03:45:53;;;;;;;;;;;;;;;;;;1478267;40;7027;-62
2021/06/11 03:47:01;;;;;;;;;;;;;;;;;;1479829;40;7035;-65
2021/06/11 03:48:05;;;;;;;;;;;;;;;;;;1483278;40;7015;-67
2021/06/11 03:49:09;;;;;;;;;;;;;;;;;;1478250;40;9125;-68
2021/06/11 03:50:12;;;;;;;;;;;;;;;;;;1478447;40;7059;-67
2021/06/11 03:51:16;;;;;;;;;;;;;;;;;;1478869;40;7007;-68
2021/06/11 03:52:24;;;;;;;;;;;;;;;;;;1479282;40;7031;-63
2021/06/11 03:53:27;;;;;;;;;;;;;;;;;;1479113;40;6999;-63
2021/06/11 03:54:30;;;;;;;;;;;;;;;;;;1479175;40;7035;-64
2021/06/11 03:55:37;;;;;;;;;;;;;;;;;;1479102;40;7206;-67
2021/06/11 03:56:40;;;;;;;;;;;;;;;;;;1479535;40;8885;-64
2021/06/11 03:57:46;;;;;;;;;;;;;;;;;;1478770;40;7019;-66
2021/06/11 03:58:50;;;;;;;;;;;;;;;;;;1479070;40;7035;-67
2021/06/11 03:59:54;;;;;;;;;;;;;;;;;;1479172;40;7007;-65
2021/06/11 04:00:58;;;;;;;;;;;;;;;;;;1479121;40;7027;-64
2021/06/11 04:02:03;;;;;;;;;;;;;;;;;;1479112;40;7003;-67
2021/06/11 04:03:06;;;;;;;;;;;;;;;;;;1479044;40;7959;-66
2021/06/11 04:04:13;;;;;;;;;;;;;;;;;;1478198;40;7040;-67
2021/06/11 04:05:16;;;;;;;;;;;;;;;;;;1479154;40;7016;-65
2021/06/11 04:06:37;;;;;;;;;;;;;;;;;;1479583;40;7003;-63
2021/06/11 04:07:57;;;;;;;;;;;;;;;;;;1479054;40;6999;-67
2021/06/11 04:09:12;;;;;;;;;;;;;;;;;;1479124;40;7039;-64
2021/06/11 04:10:21;;;;;;;;;;;;;;;;;;1478978;40;7837;-67
2021/06/11 04:11:27;;;;;;;;;;;;;;;;;;1478908;40;7254;-65
2021/06/11 04:12:33;;;;;;;;;;;;;;;;;;1478877;40;7007;-65
2021/06/11 04:13:35;;;;;;;;;;;;;;;;;;1479143;40;7054;-63
2021/06/11 04:14:41;;;;;;;;;;;;;;;;;;1479306;40;7951;-64
2021/06/11 04:15:47;;;;;;;;;;;;;;;;;;1478828;40;7023;-66
2021/06/11 04:16:51;;;;;;;;;;;;;;;;;;1479064;40;7946;-64
2021/06/11 04:18:00;;;;;;;;;;;;;;;;;;1481320;40;7292;-65
2021/06/11 04:19:03;;;;;;;;;;;;;;;;;;1482130;40;7156;-64
2021/06/11 04:20:08;;;;;;;;;;;;;;;;;;1483146;40;7852;-62
2021/06/11 04:21:16;;;;;;;;;;;;;;;;;;1479605;40;7013;-68
2021/06/11 04:22:22;;;;;;;;;;;;;;;;;;1482768;40;7027;-66
2021/06/11 04:23:26;;;;;;;;;;;;;;;;;;1479615;40;7914;-63
2021/06/11 04:24:31;;;;;;;;;;;;;;;;;;1479262;40;7027;-64
2021/06/11 04:25:34;;;;;;;;;;;;;;;;;;1480898;40;7003;-67
2021/06/11 04:26:40;;;;;;;;;;;;;;;;;;1483182;40;7015;-64
2021/06/11 04:27:44;;;;;;;;;;;;;;;;;;1483193;40;6999;-65
2021/06/11 04:28:48;;;;;;;;;;;;;;;;;;1482838;40;7902;-67
2021/06/11 04:29:52;;;;;;;;;;;;;;;;;;1482810;40;7015;-64
2021/06/11 04:30:54;;;;;;;;;;;;;;;;;;1483011;40;7115;-65
2021/06/11 04:31:58;;;;;;;;;;;;;;;;;;1482856;40;7938;-62
2021/06/11 04:33:00;;;;;;;;;;;;;;;;;;1482781;40;7103;-67
2021/06/11 04:34:03;;;;;;;;;;;;;;;;;;1483134;40;7251;-63
2021/06/11 04:35:06;;;;;;;;;;;;;;;;;;1483097;40;7202;-65
2021/06/11 04:36:09;;;;;;;;;;;;;;;;;;1483365;40;7944;-65
2021/06/11 04:37:17;;;;;;;;;;;;;;;;;;1482662;40;7933;-64
2021/06/11 04:38:21;;;;;;;;;;;;;;;;;;1482173;40;7898;-65
2021/06/11 04:39:25;;;;;;;;;;;;;;;;;;1479608;40;7231;-65
2021/06/11 04:40:27;;;;;;;;;;;;;;;;;;1479326;40;7198;-64
2021/06/11 04:41:30;;;;;;;;;;;;;;;;;;1479132;40;7867;-65
2021/06/11 04:42:34;;;;;;;;;;;;;;;;;;1479462;40;7050;-65
2021/06/11 04:43:36;;;;;;;;;;;;;;;;;;1479115;40;9189;-65
2021/06/11 04:44:39;;;;;;;;;;;;;;;;;;1479275;40;7011;-65
2021/06/11 04:45:41;;;;;;;;;;;;;;;;;;1479479;40;7017;-65
2021/06/11 04:46:44;;;;;;;;;;;;;;;;;;1479086;40;7879;-69
2021/06/11 04:47:46;;;;;;;;;;;;;;;;;;1482771;40;7962;-67
2021/06/11 04:48:49;;;;;;;;;;;;;;;;;;1483733;40;7003;-62
2021/06/11 04:49:51;;;;;;;;;;;;;;;;;;1483716;40;7055;-67
2021/06/11 04:50:54;;;;;;;;;;;;;;;;;;1478831;40;7880;-66
2021/06/11 04:51:56;;;;;;;;;;;;;;;;;;1479270;40;7100;-68
2021/06/11 04:52:59;;;;;;;;;;;;;;;;;;1479403;40;7113;-66
2021/06/11 04:54:02;;;;;;;;;;;;;;;;;;1479067;40;7117;-65
2021/06/11 04:55:04;;;;;;;;;;;;;;;;;;1479090;40;7353;-63
2021/06/11 04:56:08;;;;;;;;;;;;;;;;;;1478990;40;7000;-67
2021/06/11 04:57:11;;;;;;;;;;;;;;;;;;1479232;40;7043;-66
2021/06/11 04:58:17;;;;;;;;;;;;;;;;;;1478941;40;7891;-66
2021/06/11 04:59:20;;;;;;;;;;;;;;;;;;1479432;40;6999;-65
2021/06/11 05:00:24;;;;;;;;;;;;;;;;;;1479118;40;7038;-67
2021/06/11 05:01:27;;;;;;;;;;;;;;;;;;1479194;40;7035;-66
2021/06/11 05:02:29;;;;;;;;;;;;;;;;;;1479214;40;7091;-63
2021/06/11 05:03:33;;;;;;;;;;;;;;;;;;1478589;40;7015;-69
2021/06/11 05:04:35;;;;;;;;;;;;;;;;;;1478671;40;7000;-66
2021/06/11 05:05:37;;;;;;;;;;;;;;;;;;1478352;40;7925;-63
2021/06/11 05:06:40;;;;;;;;;;;;;;;;;;1478701;40;7003;-67
2021/06/11 05:07:42;;;;;;;;;;;;;;;;;;1479152;40;7028;-65
2021/06/11 05:08:45;;;;;;;;;;;;;;;;;;1479309;40;7859;-65
2021/06/11 05:09:47;;;;;;;;;;;;;;;;;;1478943;40;7011;-62
2021/06/11 05:10:50;;;;;;;;;;;;;;;;;;1479386;40;7015;-64
2021/06/11 05:11:52;;;;;;;;;;;;;;;;;;1479134;40;7016;-66
2021/06/11 05:12:55;;;;;;;;;;;;;;;;;;1479556;40;7020;-67
2021/06/11 05:13:57;;;;;;;;;;;;;;;;;;1478902;40;7003;-63
2021/06/11 05:15:00;;;;;;;;;;;;;;;;;;1479158;40;7003;-68
2021/06/11 05:16:03;;;;;;;;;;;;;;;;;;1479190;40;7003;-64
2021/06/11 05:17:05;;;;;;;;;;;;;;;;;;1479174;40;7004;-62
2021/06/11 05:18:08;;;;;;;;;;;;;;;;;;1482657;40;7035;-66
2021/06/11 05:19:11;;;;;;;;;;;;;;;;;;1480825;40;7728;-63
2021/06/11 05:20:14;;;;;;;;;;;;;;;;;;1480750;40;7863;-67
2021/06/11 05:21:16;;;;;;;;;;;;;;;;;;1478909;40;7003;-62
2021/06/11 05:22:21;;;;;;;;;;;;;;;;;;1482571;40;7003;-62
2021/06/11 05:23:23;;;;;;;;;;;;;;;;;;1482011;40;8368;-63
2021/06/11 05:24:25;;;;;;;;;;;;;;;;;;1482899;40;7100;-62
2021/06/11 05:25:28;;;;;;;;;;;;;;;;;;1482985;40;7038;-64
2021/06/11 05:26:31;;;;;;;;;;;;;;;;;;1483195;40;7199;-63
2021/06/11 05:27:33;;;;;;;;;;;;;;;;;;1483253;40;8244;-66
2021/06/11 05:28:35;;;;;;;;;;;;;;;;;;1481440;40;7170;-64
2021/06/11 05:29:38;;;;;;;;;;;;;;;;;;1478959;40;7023;-67
2021/06/11 05:30:40;;;;;;;;;;;;;;;;;;1482648;40;7216;-65
2021/06/11 05:31:43;;;;;;;;;;;;;;;;;;1483123;40;7007;-63
2021/06/11 05:32:46;;;;;;;;;;;;;;;;;;1482734;40;7007;-66
2021/06/11 05:33:49;;;;;;;;;;;;;;;;;;1482892;40;7113;-68
2021/06/11 05:34:51;;;;;;;;;;;;;;;;;;1475922;40;7123;-66
2021/06/11 05:35:54;;;;;;;;;;;;;;;;;;1474468;40;7133;-63
2021/06/11 05:36:56;;;;;;;;;;;;;;;;;;1478255;40;7880;-62
2021/06/11 05:38:02;;;;;;;;;;;;;;;;;;1478403;40;7977;-65
2021/06/11 05:39:05;;;;;;;;;;;;;;;;;;1478865;40;7012;-67
2021/06/11 05:40:07;;;;;;;;;;;;;;;;;;1479046;40;7004;-64
2021/06/11 05:41:10;;;;;;;;;;;;;;;;;;1478633;40;7003;-64
2021/06/11 05:42:12;;;;;;;;;;;;;;;;;;1481481;40;7062;-66
2021/06/11 05:43:15;;;;;;;;;;;;;;;;;;1482951;40;7047;-63
2021/06/11 05:44:17;;;;;;;;;;;;;;;;;;1481843;40;6999;-69
2021/06/11 05:45:20;;;;;;;;;;;;;;;;;;1478878;40;7089;-65
2021/06/11 05:46:22;;;;;;;;;;;;;;;;;;1478920;40;7000;-63
2021/06/11 05:47:25;;;;;;;;;;;;;;;;;;1482114;40;7031;-66
2021/06/11 05:48:28;;;;;;;;;;;;;;;;;;1483072;40;7039;-67
2021/06/11 05:49:30;;;;;;;;;;;;;;;;;;1482974;40;7076;-66
2021/06/11 05:50:33;;;;;;;;;;;;;;;;;;1483020;40;7007;-67
2021/06/11 05:51:35;;;;;;;;;;;;;;;;;;1482821;40;7905;-68
2021/06/11 05:52:37;;;;;;;;;;;;;;;;;;1483109;40;7070;-66
2021/06/11 05:53:40;;;;;;;;;;;;;;;;;;1482874;40;7461;-66
2021/06/11 05:54:43;;;;;;;;;;;;;;;;;;1482873;40;7075;-65
2021/06/11 05:55:45;;;;;;;;;;;;;;;;;;1482850;40;6999;-64
2021/06/11 05:56:48;;;;;;;;;;;;;;;;;;1482953;40;7086;-66
2021/06/11 05:57:51;;;;;;;;;;;;;;;;;;1482908;40;7016;-68
2021/06/11 05:58:54;;;;;;;;;;;;;;;;;;1483003;40;7031;-66
2021/06/11 05:59:57;;;;;;;;;;;;;;;;;;1482954;40;7012;-68
2021/06/11 06:00:59;;;;;;;;;;;;;;;;;;1480039;40;7016;-65
2021/06/11 06:02:03;;;;;;;;;;;;;;;;;;1479131;40;7120;-67
2021/06/11 06:03:05;;;;;;;;;;;;;;;;;;1478469;40;7117;-67
2021/06/11 06:04:08;;;;;;;;;;;;;;;;;;1479020;40;7959;-62
2021/06/11 06:05:11;;;;;;;;;;;;;;;;;;1479024;40;6999;-66
2021/06/11 06:06:13;;;;;;;;;;;;;;;;;;1479212;40;7031;-66
2021/06/11 06:07:16;;;;;;;;;;;;;;;;;;1478423;40;7016;-66
2021/06/11 06:08:18;;;;;;;;;;;;;;;;;;1479235;40;7016;-65
2021/06/11 06:09:21;;;;;;;;;;;;;;;;;;1478660;40;7004;-65
2021/06/11 06:10:23;;;;;;;;;;;;;;;;;;1479126;40;7039;-66
2021/06/11 06:11:25;;;;;;;;;;;;;;;;;;1479228;40;7132;-66
2021/06/11 06:12:28;;;;;;;;;;;;;;;;;;1479012;40;7125;-66
2021/06/11 06:13:30;;;;;;;;;;;;;;;;;;1478715;40;7083;-65
2021/06/11 06:14:33;;;;;;;;;;;;;;;;;;1478133;40;7940;-65
2021/06/11 06:15:35;;;;;;;;;;;;;;;;;;1478843;40;7872;-65
2021/06/11 06:16:38;;;;;;;;;;;;;;;;;;1478807;40;7031;-64
2021/06/11 06:17:40;;;;;;;;;;;;;;;;;;1480840;40;6999;-66
2021/06/11 06:18:44;;;;;;;;;;;;;;;;;;1483043;40;6999;-69
2021/06/11 06:19:46;;;;;;;;;;;;;;;;;;1480419;40;7011;-66
2021/06/11 06:21:09;;;;;;;;;;;;;;;;;;1479080;40;7052;-66
2021/06/11 06:22:12;;;;;;;;;;;;;;;;;;1483026;40;7519;-63
2021/06/11 06:23:15;;;;;;;;;;;;;;;;;;1480133;40;7008;-62
2021/06/11 06:24:17;;;;;;;;;;;;;;;;;;1478675;40;7003;-63
2021/06/11 06:25:20;;;;;;;;;;;;;;;;;;1481064;40;7105;-67
2021/06/11 06:26:22;;;;;;;;;;;;;;;;;;1483229;40;6999;-65
2021/06/11 06:27:25;;;;;;;;;;;;;;;;;;1480411;40;7042;-64
2021/06/11 06:28:31;;;;;;;;;;;;;;;;;;1482691;40;7117;-63
2021/06/11 06:29:33;;;;;;;;;;;;;;;;;;1482675;40;7971;-66
2021/06/11 06:30:36;;;;;;;;;;;;;;;;;;1482741;40;7007;-66
2021/06/11 06:31:38;;;;;;;;;;;;;;;;;;1478667;40;7112;-62
2021/06/11 06:32:42;;;;;;;;;;;;;;;;;;1478824;40;7076;-65
2021/06/11 06:33:49;;;;;;;;;;;;;;;;;;1478557;40;7932;-68
2021/06/11 06:34:51;;;;;;;;;;;;;;;;;;1478806;40;7083;-66
2021/06/11 06:35:54;;;;;;;;;;;;;;;;;;1482513;40;7000;-67
2021/06/11 06:36:56;;;;;;;;;;;;;;;;;;1482448;40;7909;-66
2021/06/11 06:38:07;;;;;;;;;;;;;;;;;;1478256;40;7246;-66
2021/06/11 06:39:10;;;;;;;;;;;;;;;;;;1478536;40;7031;-63
2021/06/11 06:40:12;;;;;;;;;;;;;;;;;;1479037;40;7023;-64
2021/06/11 06:41:17;;;;;;;;;;;;;;;;;;1478527;40;7197;-66
2021/06/11 06:42:20;;;;;;;;;;;;;;;;;;1479103;40;7131;-64
2021/06/11 06:43:23;;;;;;;;;;;;;;;;;;1479186;40;7012;-67
2021/06/11 06:44:25;;;;;;;;;;;;;;;;;;1478859;40;7051;-65
2021/06/11 06:45:27;;;;;;;;;;;;;;;;;;1479280;40;7047;-66
2021/06/11 06:46:32;;;;;;;;;;;;;;;;;;1483065;40;10131;-66
2021/06/11 06:47:34;;;;;;;;;;;;;;;;;;1479118;40;7066;-66
2021/06/11 06:48:37;;;;;;;;;;;;;;;;;;1479297;40;7011;-66
2021/06/11 06:49:39;;;;;;;;;;;;;;;;;;1479067;40;7000;-66
2021/06/11 06:50:42;;;;;;;;;;;;;;;;;;1478995;40;7035;-63
2021/06/11 06:51:44;;;;;;;;;;;;;;;;;;1478853;40;6999;-64
2021/06/11 06:52:47;;;;;;;;;;;;;;;;;;1478769;40;7043;-65
2021/06/11 06:53:50;;;;;;;;;;;;;;;;;;1478686;40;7877;-64
2021/06/11 06:54:52;;;;;;;;;;;;;;;;;;1478569;40;7040;-64
2021/06/11 06:55:54;;;;;;;;;;;;;;;;;;1478700;40;7069;-65
2021/06/11 06:56:57;;;;;;;;;;;;;;;;;;1478725;40;7031;-66
2021/06/11 06:57:59;;;;;;;;;;;;;;;;;;1478964;40;7857;-64
2021/06/11 06:59:02;;;;;;;;;;;;;;;;;;1478932;40;7892;-65
2021/06/11 07:00:06;;;;;;;;;;;;;;;;;;1479154;40;7896;-68
2021/06/11 07:01:09;;;;;;;;;;;;;;;;;;1479185;40;7019;-66
2021/06/11 07:02:12;;;;;;;;;;;;;;;;;;1479133;40;6999;-64
2021/06/11 07:03:14;;;;;;;;;;;;;;;;;;1478942;40;7027;-66
2021/06/11 07:04:18;;;;;;;;;;;;;;;;;;1478824;40;7907;-66
2021/06/11 07:05:20;;;;;;;;;;;;;;;;;;1478801;40;7012;-63
2021/06/11 07:06:25;;;;;;;;;;;;;;;;;;1479004;40;7035;-66
2021/06/11 07:07:28;;;;;;;;;;;;;;;;;;1479026;40;7198;-64
2021/06/11 07:08:31;;;;;;;;;;;;;;;;;;1478827;40;7104;-65
2021/06/11 07:09:34;;;;;;;;;;;;;;;;;;1478830;40;7003;-67
2021/06/11 07:10:36;;;;;;;;;;;;;;;;;;1478775;40;7930;-64
2021/06/11 07:11:39;;;;;;;;;;;;;;;;;;1481975;40;7113;-69
2021/06/11 07:12:42;;;;;;;;;;;;;;;;;;1483321;40;6996;-66
2021/06/11 07:13:45;;;;;;;;;;;;;;;;;;1483187;40;7079;-68
2021/06/11 07:14:47;;;;;;;;;;;;;;;;;;1483269;40;7103;-64
2021/06/11 07:15:50;;;;;;;;;;;;;;;;;;1478582;40;7047;-63
2021/06/11 07:16:52;;;;;;;;;;;;;;;;;;1479157;40;6999;-65
2021/06/11 07:17:56;;;;;;;;;;;;;;;;;;1481304;40;7197;-66
2021/06/11 07:18:58;;;;;;;;;;;;;;;;;;1481068;40;7882;-67
2021/06/11 07:20:01;;;;;;;;;;;;;;;;;;1480788;40;7883;-66
2021/06/11 07:21:05;;;;;;;;;;;;;;;;;;1478226;40;7883;-65
2021/06/11 07:22:08;;;;;;;;;;;;;;;;;;1482675;40;7161;-64
2021/06/11 07:23:10;;;;;;;;;;;;;;;;;;1479904;40;7115;-65
2021/06/11 07:24:12;;;;;;;;;;;;;;;;;;1478511;40;7106;-66
2021/06/11 07:25:15;;;;;;;;;;;;;;;;;;1478660;40;7035;-64